createdAt,value
2024-03-07T00:00:23.209Z,3.53
2024-03-07T00:05:26.166Z,3.55
2024-03-07T00:10:28.447Z,3.50
2024-03-07T00:15:31.265Z,3.48
2024-03-07T00:20:32.957Z,3.49
2024-03-07T00:25:34.705Z,3.53
2024-03-07T00:30:36.501Z,3.53
2024-03-07T00:35:38.267Z,3.52
2024-03-07T00:40:39.969Z,3.52
2024-03-07T00:45:41.945Z,3.56
2024-03-07T00:50:43.857Z,3.54
2024-03-07T00:55:46.021Z,3.58
2024-03-07T01:00:47.689Z,3.63
2024-03-07T01:05:49.475Z,3.66
2024-03-07T01:10:51.342Z,3.62
2024-03-07T01:15:53.071Z,3.67
2024-03-07T01:20:55.978Z,3.66
2024-03-07T01:26:00.806Z,3.69
2024-03-07T01:31:02.468Z,3.73
2024-03-07T01:36:06.252Z,3.76
2024-03-07T01:41:07.905Z,3.75
2024-03-07T01:46:11.237Z,3.73
2024-03-07T01:51:12.922Z,3.76
2024-03-07T01:56:14.680Z,3.82
2024-03-07T02:01:16.866Z,3.86
2024-03-07T02:06:18.772Z,3.90
2024-03-07T02:11:20.746Z,3.92
2024-03-07T02:16:22.736Z,3.95
2024-03-07T02:21:24.385Z,3.99
2024-03-07T02:26:26.183Z,4.00
2024-03-07T02:31:36.200Z,4.02
2024-03-07T02:36:38.054Z,4.00
2024-03-07T02:41:39.875Z,3.97
2024-03-07T02:46:42.190Z,3.99
2024-03-07T02:51:43.891Z,4.05
2024-03-07T02:56:46.563Z,4.06
2024-03-07T03:01:48.384Z,4.10
2024-03-07T03:06:50.084Z,4.19
2024-03-07T03:11:52.893Z,4.21
2024-03-07T03:16:54.624Z,4.21
2024-03-07T03:21:56.905Z,4.34
2024-03-07T03:26:58.758Z,4.33
2024-03-07T03:32:00.547Z,4.30
2024-03-07T03:37:02.187Z,4.29
2024-03-07T03:42:03.977Z,4.30
2024-03-07T03:47:05.698Z,4.32
2024-03-07T03:52:07.741Z,4.39
2024-03-07T03:57:09.454Z,4.36
2024-03-07T04:02:12.082Z,4.35
2024-03-07T04:07:13.931Z,4.30
2024-03-07T04:12:16.500Z,4.35
2024-03-07T04:17:18.296Z,4.28
2024-03-07T04:22:22.865Z,4.25
2024-03-07T04:27:24.713Z,4.21
2024-03-07T04:32:26.442Z,4.16
2024-03-07T04:37:28.528Z,4.10
2024-03-07T04:42:30.305Z,3.98
2024-03-07T04:47:31.998Z,3.93
2024-03-07T04:52:34.480Z,3.89
2024-03-07T04:57:41.115Z,3.84
2024-03-07T05:02:43.245Z,3.77
2024-03-07T05:07:44.933Z,3.73
2024-03-07T05:12:46.611Z,3.76
2024-03-07T05:17:48.419Z,3.74
2024-03-07T05:22:53.068Z,3.59
2024-03-07T05:27:55.319Z,3.47
2024-03-07T05:32:57.101Z,3.41
2024-03-07T05:37:59.199Z,3.40
2024-03-07T05:43:00.849Z,3.33
2024-03-07T05:48:15.809Z,3.21
2024-03-07T05:53:19.191Z,3.13
2024-03-07T05:58:21.118Z,3.10
2024-03-07T06:03:22.787Z,2.99
2024-03-07T06:08:24.520Z,2.83
2024-03-07T06:13:26.247Z,2.74
2024-03-07T06:18:31.391Z,2.72
2024-03-07T06:23:33.626Z,2.66
2024-03-07T06:28:35.269Z,2.57
2024-03-07T06:33:38.326Z,2.61
2024-03-07T06:38:40.365Z,2.70
2024-03-07T06:43:44.223Z,2.80
2024-03-07T06:48:45.977Z,2.90
2024-03-07T06:53:51.464Z,2.87
2024-03-07T06:58:53.337Z,2.91
2024-03-07T07:03:55.909Z,2.95
2024-03-07T07:08:57.591Z,3.23
2024-03-07T07:13:59.269Z,3.35
2024-03-07T07:19:00.899Z,3.42
2024-03-07T07:24:03.175Z,3.44
2024-03-07T07:29:05.867Z,3.54
2024-03-07T07:34:07.619Z,3.52
2024-03-07T07:39:18.074Z,3.36
2024-03-07T07:44:20.548Z,3.23
2024-03-07T07:49:22.190Z,3.36
2024-03-07T07:54:25.766Z,3.39
2024-03-07T07:59:27.454Z,3.46
2024-03-07T08:04:29.133Z,3.50
2024-03-07T08:09:30.801Z,3.66
2024-03-07T08:14:32.467Z,3.92
2024-03-07T08:19:34.144Z,4.19
2024-03-07T08:24:35.746Z,4.17
2024-03-07T08:29:37.408Z,4.16
2024-03-07T08:34:39.039Z,4.33
2024-03-07T08:39:42.022Z,4.41
2024-03-07T08:44:44.056Z,4.46
2024-03-07T08:49:45.712Z,4.58
2024-03-07T08:54:47.989Z,4.58
2024-03-07T08:59:50.059Z,4.63
2024-03-07T09:04:51.873Z,4.74
2024-03-07T09:09:53.725Z,4.87
2024-03-07T09:14:57.279Z,4.98
2024-03-07T09:19:59.215Z,4.97
2024-03-07T09:25:00.887Z,5.19
2024-03-07T09:30:02.580Z,5.21
2024-03-07T09:35:04.768Z,5.16
2024-03-07T09:40:07.667Z,5.11
2024-03-07T09:45:09.806Z,5.14
2024-03-07T09:50:11.475Z,5.16
2024-03-07T09:55:14.607Z,5.32
2024-03-07T10:00:28.045Z,5.33
2024-03-07T10:05:32.437Z,5.50
2024-03-07T10:10:34.366Z,5.48
2024-03-07T10:15:36.394Z,5.33
2024-03-07T10:20:38.494Z,5.27
2024-03-07T10:25:41.417Z,5.22
2024-03-07T10:30:45.680Z,5.44
2024-03-07T10:35:50.361Z,5.52
2024-03-07T10:40:56.254Z,5.58
2024-03-07T10:45:58.242Z,5.62
2024-03-07T10:50:59.893Z,5.57
2024-03-07T10:56:28.378Z,5.46
2024-03-07T11:01:35.673Z,5.45
2024-03-07T11:06:38.460Z,5.43
2024-03-07T11:11:45.115Z,5.22
2024-03-07T11:16:47.098Z,5.24
2024-03-07T11:21:49.441Z,5.10
2024-03-07T11:26:57.461Z,5.06
2024-03-07T11:31:59.091Z,4.98
2024-03-07T11:37:01.198Z,4.99
2024-03-07T11:42:07.740Z,4.96
2024-03-07T11:47:12.474Z,4.96
2024-03-07T11:52:14.380Z,4.84
2024-03-07T11:57:17.001Z,4.74
2024-03-07T12:02:22.620Z,4.72
2024-03-07T12:07:24.436Z,4.60
2024-03-07T12:12:26.301Z,4.56
2024-03-07T12:17:31.268Z,4.60
2024-03-07T12:22:34.112Z,4.71
2024-03-07T12:27:35.685Z,4.75
2024-03-07T12:32:37.415Z,4.77
2024-03-07T12:37:39.125Z,4.74
2024-03-07T12:42:40.724Z,4.78
2024-03-07T12:47:42.365Z,4.94
2024-03-07T12:52:46.882Z,5.34
2024-03-07T12:57:50.986Z,5.44
2024-03-07T13:02:52.649Z,5.28
2024-03-07T13:07:54.492Z,5.36
2024-03-07T13:12:56.132Z,5.50
2024-03-07T13:17:57.805Z,5.43
2024-03-07T13:23:01.930Z,5.35
2024-03-07T13:28:17.571Z,5.31
2024-03-07T13:33:19.589Z,5.48
2024-03-07T13:38:21.610Z,5.62
2024-03-07T13:43:23.306Z,5.74
2024-03-07T13:48:25.331Z,5.88
2024-03-07T13:53:29.178Z,6.03
2024-03-07T13:58:34.051Z,6.04
2024-03-07T14:03:50.470Z,5.96
2024-03-07T14:09:00.615Z,6.03
2024-03-07T14:14:08.248Z,6.16
2024-03-07T14:19:47.366Z,6.12
2024-03-07T14:25:27.199Z,5.86
2024-03-07T14:30:45.076Z,5.64
2024-03-07T14:36:08.767Z,5.57
2024-03-07T14:41:13.415Z,5.59
2024-03-07T14:46:16.808Z,5.63
2024-03-07T14:51:18.896Z,5.67
2024-03-07T14:56:21.134Z,5.58
2024-03-07T15:01:22.790Z,5.61
2024-03-07T15:06:24.385Z,5.54
2024-03-07T15:11:37.244Z,5.58
2024-03-07T15:16:40.249Z,5.53
2024-03-07T15:21:41.932Z,5.49
2024-03-07T15:26:46.993Z,5.45
2024-03-07T15:31:50.726Z,5.45
2024-03-07T15:37:01.146Z,5.32
2024-03-07T15:42:02.817Z,5.28
2024-03-07T15:47:07.873Z,5.26
2024-03-07T15:52:10.592Z,5.19
2024-03-07T15:57:12.315Z,5.19
2024-03-07T16:02:15.725Z,5.14
2024-03-07T16:07:17.719Z,5.12
2024-03-07T16:12:19.893Z,5.02
2024-03-07T16:17:21.598Z,4.98
2024-03-07T16:22:23.846Z,4.94
2024-03-07T16:27:25.506Z,4.89
2024-03-07T16:32:28.282Z,4.81
2024-03-07T16:37:29.975Z,4.72
2024-03-07T16:42:31.556Z,4.69
2024-03-07T16:47:33.197Z,4.61
2024-03-07T16:52:34.895Z,4.58
2024-03-07T16:57:43.216Z,4.51
2024-03-07T17:02:48.113Z,4.45
2024-03-07T17:07:50.612Z,4.36
2024-03-07T17:12:52.434Z,4.31
2024-03-07T17:17:54.903Z,4.30
2024-03-07T17:22:57.266Z,4.29
2024-03-07T17:28:00.595Z,4.23
2024-03-07T17:33:02.458Z,4.17
2024-03-07T17:38:04.391Z,4.17
2024-03-07T17:43:06.030Z,4.07
2024-03-07T17:48:09.047Z,4.01
2024-03-07T17:53:14.864Z,3.99
2024-03-07T17:58:20.876Z,4.00
2024-03-07T18:03:22.872Z,4.01
2024-03-07T18:08:35.610Z,3.99
2024-03-07T18:13:44.558Z,3.93
2024-03-07T18:18:47.495Z,3.92
2024-03-07T18:23:50.094Z,3.86
2024-03-07T18:28:53.359Z,3.84
2024-03-07T18:33:55.080Z,3.85
2024-03-07T18:38:56.927Z,3.80
2024-03-07T18:43:58.633Z,3.77
2024-03-07T18:49:00.944Z,3.68
2024-03-07T18:54:02.779Z,3.65
2024-03-07T18:59:11.165Z,3.60
2024-03-07T19:04:12.796Z,3.57
2024-03-07T19:09:14.655Z,3.53
2024-03-07T19:14:16.290Z,3.54
2024-03-07T19:19:18.187Z,3.47
2024-03-07T19:24:20.426Z,3.45
2024-03-07T19:29:22.229Z,3.40
2024-03-07T19:34:23.898Z,3.36
2024-03-07T19:39:27.928Z,3.34
2024-03-07T19:44:31.978Z,3.33
2024-03-07T19:49:36.756Z,3.29
2024-03-07T19:54:39.480Z,3.26
2024-03-07T19:59:41.256Z,3.25
2024-03-07T20:04:44.515Z,3.26
2024-03-07T20:09:48.351Z,3.24
2024-03-07T20:14:50.114Z,3.21
2024-03-07T20:19:51.724Z,3.19
2024-03-07T20:24:53.349Z,3.16
2024-03-07T20:29:54.972Z,3.15
2024-03-07T20:34:57.129Z,3.13
2024-03-07T20:40:05.216Z,3.13
2024-03-07T20:45:12.314Z,3.14
2024-03-07T20:50:16.929Z,3.11
2024-03-07T20:55:23.947Z,3.08
2024-03-07T21:00:26.398Z,3.01
2024-03-07T21:05:28.455Z,2.99
2024-03-07T21:10:30.814Z,2.98
2024-03-07T21:15:32.402Z,2.97
2024-03-07T21:20:34.660Z,2.96
2024-03-07T21:25:36.996Z,2.98
2024-03-07T21:30:39.030Z,3.00
2024-03-07T21:35:42.679Z,3.01
2024-03-07T21:40:48.749Z,3.01
2024-03-07T21:45:50.338Z,2.99
2024-03-07T21:50:52.051Z,3.00
2024-03-07T21:55:57.015Z,3.00
2024-03-07T22:00:58.640Z,3.00
2024-03-07T22:06:00.335Z,3.02
2024-03-07T22:11:02.043Z,3.02
2024-03-07T22:16:03.909Z,3.04
2024-03-07T22:21:07.900Z,3.06
2024-03-07T22:26:15.446Z,3.00
2024-03-07T22:31:17.015Z,2.98
2024-03-07T22:36:19.683Z,3.02
2024-03-07T22:41:21.586Z,3.03
2024-03-07T22:46:23.928Z,3.04
2024-03-07T22:51:25.524Z,3.05
2024-03-07T22:56:30.038Z,3.05
2024-03-07T23:01:34.814Z,3.04
2024-03-07T23:06:36.375Z,3.05
2024-03-07T23:11:38.094Z,3.05
2024-03-07T23:16:39.695Z,3.04
2024-03-07T23:21:44.138Z,3.01
2024-03-07T23:26:52.988Z,2.99
2024-03-07T23:31:54.996Z,2.87
2024-03-07T23:36:57.349Z,2.72
2024-03-07T23:41:58.978Z,2.54
2024-03-07T23:47:00.826Z,2.42
2024-03-07T23:52:02.416Z,2.32
2024-03-07T23:57:05.592Z,2.24
